Time;durP1;ratioP1;P1;durP2;ratioP2;P2;SDS_P1;SDS_P2;PMS_P1;PMS_P2;Temp;Humidity;BMP_temperature;BMP_pressure;BME280_temperature;BME280_humidity;BME280_pressure;Samples;Min_cycle;Max_cycle;Signal;HPM_P1;HPM_P2
2022/04/02 00:02:15;;;;;;;4.27;2.27;;;4.30;95.20;;;;;;5063643;28;20207;-39
2022/04/02 00:04:42;;;;;;;2.90;2.07;;;4.30;95.10;;;;;;5066913;28;20685;-39
2022/04/02 00:07:09;;;;;;;4.53;3.03;;;4.30;95.20;;;;;;5054520;28;20821;-33
2022/04/02 00:09:40;;;;;;;4.60;2.40;;;4.30;95.20;;;;;;5047480;28;20200;-33
2022/04/02 00:12:10;;;;;;;3.13;2.20;;;4.40;95.20;;;;;;5054025;28;20224;-34
2022/04/02 00:14:37;;;;;;;4.70;2.53;;;4.30;95.10;;;;;;5062784;28;20219;-33
2022/04/02 00:17:05;;;;;;;4.23;2.43;;;4.40;95.20;;;;;;5064956;28;20700;-33
2022/04/02 00:19:32;;;;;;;6.33;2.47;;;4.40;95.20;;;;;;5062471;28;20212;-33
2022/04/02 00:21:59;;;;;;;6.20;2.37;;;4.30;94.90;;;;;;5061411;28;20196;-33
2022/04/02 00:24:27;;;;;;;2.63;2.40;;;4.30;95.00;;;;;;5060218;28;20208;-33
2022/04/02 00:26:54;;;;;;;6.20;2.33;;;4.30;95.20;;;;;;5064429;28;20207;-33
2022/04/02 00:29:21;;;;;;;4.57;2.30;;;4.30;95.00;;;;;;5065652;28;20294;-40
2022/04/02 00:31:56;;;;;;;3.73;2.20;;;4.30;95.00;;;;;;5064312;28;20191;-39
2022/04/02 00:34:23;;;;;;;3.67;2.23;;;4.40;95.10;;;;;;5065998;28;20227;-41
2022/04/02 00:36:50;;;;;;;4.20;2.30;;;4.40;95.10;;;;;;5067373;28;20215;-39
2022/04/02 00:39:20;;;;;;;4.47;2.40;;;4.40;95.00;;;;;;5067876;28;20238;-39
2022/04/02 00:41:47;;;;;;;3.40;2.30;;;4.30;94.70;;;;;;5059641;28;20211;-39
2022/04/02 00:44:20;;;;;;;6.43;2.27;;;4.40;95.00;;;;;;5052575;28;20593;-39
2022/04/02 00:46:48;;;;;;;3.00;2.20;;;4.40;95.00;;;;;;5069762;28;20199;-39
2022/04/02 00:49:15;;;;;;;3.10;2.00;;;4.40;95.00;;;;;;5070676;28;20732;-39
2022/04/02 00:51:44;;;;;;;4.73;2.60;;;4.50;95.00;;;;;;5068204;28;20199;-39
2022/04/02 00:54:19;;;;;;;4.47;2.43;;;4.50;95.00;;;;;;5069094;28;20694;-39
2022/04/02 00:56:50;;;;;;;4.53;2.43;;;4.50;94.90;;;;;;5070517;28;20207;-39
2022/04/02 00:59:17;;;;;;;6.97;2.40;;;4.50;95.00;;;;;;5068178;28;20203;-40
2022/04/02 01:01:47;;;;;;;4.13;2.23;;;4.40;94.90;;;;;;5066062;28;20227;-39
2022/04/02 01:04:14;;;;;;;5.47;2.40;;;4.40;94.80;;;;;;5068105;28;20200;-40
2022/04/02 01:06:45;;;;;;;3.73;2.17;;;4.40;95.00;;;;;;5069630;28;20575;-40
2022/04/02 01:09:14;;;;;;;3.83;2.50;;;4.40;94.90;;;;;;5069428;28;20200;-40
2022/04/02 01:11:44;;;;;;;6.23;2.63;;;4.40;94.80;;;;;;5068197;28;20280;-40
2022/04/02 01:14:14;;;;;;;3.83;2.40;;;4.30;94.70;;;;;;5068637;28;20290;-40
2022/04/02 01:16:41;;;;;;;4.93;2.37;;;4.40;94.90;;;;;;5063539;28;20632;-40
2022/04/02 01:19:14;;;;;;;5.20;2.63;;;4.30;94.80;;;;;;5066286;28;20227;-40
2022/04/02 01:21:48;;;;;;;5.90;2.33;;;4.40;95.00;;;;;;5063227;28;20227;-40
2022/04/02 01:24:18;;;;;;;5.50;2.20;;;4.30;94.80;;;;;;5071492;28;20231;-40
2022/04/02 01:26:48;;;;;;;3.53;2.40;;;4.30;94.80;;;;;;5064017;28;20204;-40
2022/04/02 01:29:18;;;;;;;4.13;2.70;;;4.30;94.90;;;;;;5061781;28;20224;-40
2022/04/02 01:31:47;;;;;;;6.33;2.43;;;4.40;94.90;;;;;;5068427;28;20231;-40
2022/04/02 01:34:15;;;;;;;3.77;2.30;;;4.40;94.90;;;;;;5067859;28;20739;-40
2022/04/02 01:36:42;;;;;;;3.10;2.50;;;4.40;94.90;;;;;;5068148;28;20199;-40
2022/04/02 01:39:09;;;;;;;3.37;2.47;;;4.40;94.90;;;;;;5060735;28;20304;-40
2022/04/02 01:41:36;;;;;;;4.53;2.27;;;4.40;94.80;;;;;;5065905;28;20446;-40
2022/04/02 01:44:08;;;;;;;3.97;2.20;;;4.40;94.90;;;;;;5065824;28;20198;-34
2022/04/02 01:46:35;;;;;;;5.33;2.43;;;4.40;94.90;;;;;;5057602;28;20211;-34
2022/04/02 01:49:05;;;;;;;5.50;2.20;;;4.40;94.90;;;;;;5069324;28;20294;-33
2022/04/02 01:51:32;;;;;;;7.73;2.33;;;4.40;94.90;;;;;;5067471;28;20210;-33
2022/04/02 01:53:59;;;;;;;5.93;2.70;;;4.40;94.90;;;;;;5067981;28;20223;-33
2022/04/02 01:56:29;;;;;;;4.17;2.30;;;4.30;94.80;;;;;;5061131;28;20211;-33
2022/04/02 01:58:59;;;;;;;3.30;2.67;;;4.30;94.90;;;;;;5068327;28;20218;-33
2022/04/02 02:01:31;;;;;;;4.10;2.70;;;4.30;94.90;;;;;;5057479;28;20211;-33
2022/04/02 02:03:58;;;;;;;3.80;2.77;;;4.30;94.90;;;;;;5068975;28;20779;-32
2022/04/02 02:06:26;;;;;;;4.93;2.77;;;4.30;94.90;;;;;;5063644;28;20201;-33
2022/04/02 02:08:55;;;;;;;7.57;2.60;;;4.20;94.80;;;;;;5063297;28;20735;-33
2022/04/02 02:11:25;;;;;;;3.83;2.23;;;4.20;94.70;;;;;;5066655;28;20230;-33
2022/04/02 02:13:52;;;;;;;4.60;2.40;;;4.10;94.80;;;;;;5068264;28;20223;-33
2022/04/02 02:16:25;;;;;;;4.63;2.70;;;4.20;94.70;;;;;;5064048;28;20290;-34
2022/04/02 02:18:52;;;;;;;3.17;2.37;;;4.10;94.80;;;;;;5067971;28;20211;-33
2022/04/02 02:21:24;;;;;;;3.17;2.20;;;4.20;94.80;;;;;;5058594;28;20301;-33
2022/04/02 02:23:52;;;;;;;6.03;2.87;;;4.10;94.80;;;;;;5054819;28;20282;-33
2022/04/02 02:26:19;;;;;;;6.03;2.50;;;4.00;94.70;;;;;;5062493;28;20796;-33
2022/04/02 02:28:48;;;;;;;6.03;3.07;;;4.10;94.80;;;;;;5065522;28;20290;-33
2022/04/02 02:31:17;;;;;;;5.53;2.73;;;4.10;94.80;;;;;;5068081;28;20693;-33
2022/04/02 02:36:33;;;;;;;3.23;2.30;;;4.00;94.70;;;;;;5052086;28;20223;-34
2022/04/02 02:39:03;;;;;;;5.17;2.80;;;4.00;94.70;;;;;;5062754;28;20690;-34
2022/04/02 02:41:30;;;;;;;5.10;2.73;;;4.00;94.70;;;;;;5066650;28;20219;-34
2022/04/02 02:44:00;;;;;;;4.73;2.80;;;4.00;94.70;;;;;;5048772;28;20208;-34
2022/04/02 02:46:29;;;;;;;2.93;2.10;;;4.00;94.70;;;;;;5063140;28;20214;-33
2022/04/02 02:48:57;;;;;;;4.47;2.67;;;4.00;94.70;;;;;;5066663;28;20204;-33
2022/04/02 02:51:26;;;;;;;4.23;2.83;;;4.00;94.70;;;;;;5067513;28;20274;-34
2022/04/02 02:53:56;;;;;;;5.27;2.70;;;4.00;94.70;;;;;;5068239;28;20239;-33
2022/04/02 02:56:28;;;;;;;4.67;2.60;;;3.90;94.70;;;;;;5067816;28;20227;-33
2022/04/02 02:58:58;;;;;;;4.80;2.40;;;3.90;94.70;;;;;;5055332;28;20217;-33
2022/04/02 03:01:25;;;;;;;6.13;2.27;;;3.90;94.70;;;;;;5082108;28;20794;-33
2022/04/02 03:03:52;;;;;;;4.83;2.30;;;3.90;94.70;;;;;;5066458;28;20195;-34
2022/04/02 03:06:22;;;;;;;4.47;2.53;;;3.90;94.70;;;;;;5066412;28;20666;-33
2022/04/02 03:08:50;;;;;;;3.67;2.40;;;4.00;94.80;;;;;;5068415;28;20207;-33
2022/04/02 03:11:19;;;;;;;4.60;2.50;;;4.00;94.80;;;;;;5063043;28;20678;-33
2022/04/02 03:13:49;;;;;;;3.73;2.70;;;3.90;94.60;;;;;;5068132;28;20287;-33
2022/04/02 03:16:21;;;;;;;5.70;2.87;;;3.90;94.60;;;;;;5053286;28;20496;-32
2022/04/02 03:18:48;;;;;;;4.13;2.50;;;3.90;94.70;;;;;;5045258;28;20231;-34
2022/04/02 03:21:16;;;;;;;3.50;2.33;;;3.90;94.60;;;;;;5055509;28;21548;-34
2022/04/02 03:23:45;;;;;;;5.13;2.90;;;3.80;94.60;;;;;;5068437;28;20286;-33
2022/04/02 03:26:15;;;;;;;3.93;2.30;;;3.80;94.60;;;;;;5073448;28;21122;-34
2022/04/02 03:28:43;;;;;;;2.97;2.47;;;3.80;94.60;;;;;;5056058;28;20218;-34
2022/04/02 03:31:13;;;;;;;5.10;2.57;;;3.80;94.50;;;;;;5059495;28;20210;-32
2022/04/02 03:33:42;;;;;;;4.57;2.63;;;3.80;94.60;;;;;;5056686;28;20302;-33
2022/04/02 03:36:12;;;;;;;4.17;2.50;;;3.80;94.60;;;;;;5050947;28;20235;-33
2022/04/02 03:38:42;;;;;;;4.00;2.40;;;3.80;94.60;;;;;;5059656;28;20204;-34
2022/04/02 03:41:09;;;;;;;5.77;2.50;;;3.70;94.50;;;;;;5067325;28;20215;-34
2022/04/02 03:43:39;;;;;;;5.47;3.07;;;3.70;94.50;;;;;;5063533;28;20345;-33
2022/04/02 03:48:56;;;;;;;7.03;2.73;;;3.70;94.50;;;;;;5047204;28;20208;-32
2022/04/02 03:51:28;;;;;;;6.13;3.10;;;3.60;94.60;;;;;;5047347;28;21340;-34
2022/04/02 03:54:00;;;;;;;3.07;2.17;;;3.60;94.60;;;;;;5057535;28;20270;-33
2022/04/02 03:56:27;;;;;;;4.00;2.37;;;3.60;94.50;;;;;;5061083;28;20200;-33
2022/04/02 03:58:55;;;;;;;3.47;2.47;;;3.60;94.50;;;;;;5065251;28;20207;-33
2022/04/02 04:01:25;;;;;;;3.10;2.17;;;3.60;94.50;;;;;;5047027;28;20248;-33
2022/04/02 04:03:55;;;;;;;5.43;2.50;;;3.70;94.60;;;;;;5059239;28;20209;-34
2022/04/02 04:06:22;;;;;;;4.23;2.47;;;3.60;94.50;;;;;;5063207;28;20633;-34
2022/04/02 04:08:49;;;;;;;7.23;3.10;;;3.70;94.50;;;;;;5047223;28;20196;-34
2022/04/02 04:11:16;;;;;;;4.27;2.57;;;3.60;94.50;;;;;;5066534;28;20721;-33
2022/04/02 04:13:46;;;;;;;3.37;2.40;;;3.60;94.50;;;;;;5066385;28;20234;-34
2022/04/02 04:16:13;;;;;;;5.13;2.60;;;3.60;94.50;;;;;;5065065;28;20294;-34
2022/04/02 04:18:41;;;;;;;4.00;2.20;;;3.60;94.50;;;;;;5066295;28;20210;-33
2022/04/02 04:21:08;;;;;;;4.07;2.50;;;3.60;94.60;;;;;;5066262;28;20227;-32
2022/04/02 04:23:35;;;;;;;4.70;2.60;;;3.60;94.50;;;;;;5063283;28;20203;-33
2022/04/02 04:26:03;;;;;;;5.10;2.40;;;3.60;94.50;;;;;;5064509;28;20207;-33
2022/04/02 04:28:32;;;;;;;2.80;2.30;;;3.60;94.50;;;;;;5081679;28;20199;-34
2022/04/02 04:31:02;;;;;;;4.97;2.70;;;3.60;94.50;;;;;;5061517;28;20311;-34
2022/04/02 04:33:29;;;;;;;7.30;2.60;;;3.60;94.50;;;;;;5046574;28;20701;-32
2022/04/02 04:35:59;;;;;;;3.90;2.37;;;3.50;94.50;;;;;;5053357;28;21142;-33
2022/04/02 04:38:29;;;;;;;4.03;2.40;;;3.50;94.50;;;;;;5065740;28;20237;-33
2022/04/02 04:40:56;;;;;;;5.13;2.60;;;3.50;94.50;;;;;;5057025;28;20306;-33
2022/04/02 04:43:27;;;;;;;4.87;2.07;;;3.50;94.50;;;;;;5056846;28;20196;-33
2022/04/02 04:45:54;;;;;;;4.17;2.47;;;3.50;94.50;;;;;;5049879;28;20257;-34
2022/04/02 04:48:26;;;;;;;5.93;2.60;;;3.50;94.50;;;;;;5065440;28;20215;-33
2022/04/02 04:50:53;;;;;;;4.23;2.30;;;3.50;94.50;;;;;;5047240;28;20295;-33
2022/04/02 04:53:22;;;;;;;4.67;2.30;;;3.50;94.50;;;;;;5046888;28;20200;-33
2022/04/02 04:55:52;;;;;;;3.70;2.20;;;3.50;94.50;;;;;;5048657;28;20222;-33
2022/04/02 04:58:20;;;;;;;3.60;2.60;;;3.60;94.60;;;;;;5055101;28;20326;-33
2022/04/02 05:00:47;;;;;;;4.37;2.83;;;3.60;94.60;;;;;;5061459;28;20290;-33
2022/04/02 05:03:14;;;;;;;4.63;2.60;;;3.60;94.60;;;;;;5059519;28;20239;-34
2022/04/02 05:05:42;;;;;;;4.40;2.47;;;3.50;94.50;;;;;;5055966;28;20227;-41
2022/04/02 05:08:12;;;;;;;4.87;2.73;;;3.60;94.60;;;;;;5054202;28;20274;-41
2022/04/02 05:10:42;;;;;;;4.23;2.47;;;3.60;94.60;;;;;;5054544;28;20199;-41
2022/04/02 05:13:14;;;;;;;3.73;2.40;;;3.50;94.60;;;;;;5057370;28;20200;-40
2022/04/02 05:15:46;;;;;;;4.40;2.43;;;3.50;94.60;;;;;;5060077;28;20311;-41
2022/04/02 05:18:16;;;;;;;4.50;2.80;;;3.60;94.60;;;;;;5055871;28;20219;-41
2022/04/02 05:20:43;;;;;;;4.07;2.37;;;3.60;94.60;;;;;;5064663;28;20312;-33
2022/04/02 05:23:13;;;;;;;3.63;2.50;;;3.60;94.50;;;;;;5060576;28;20646;-41
2022/04/02 05:25:43;;;;;;;7.83;2.57;;;3.60;94.60;;;;;;5068049;28;20298;-41
2022/04/02 05:28:10;;;;;;;4.60;2.47;;;3.60;94.60;;;;;;5069862;28;20196;-41
2022/04/02 05:30:38;;;;;;;6.97;2.50;;;3.60;94.60;;;;;;5061439;28;20192;-41
2022/04/02 05:33:06;;;;;;;3.87;2.60;;;3.60;94.60;;;;;;5063858;28;20325;-41
2022/04/02 05:35:57;;;;;;;4.77;1.93;;;3.60;94.60;;;;;;5062026;28;20638;-40
2022/04/02 05:38:24;;;;;;;3.90;2.50;;;3.60;94.60;;;;;;5070206;28;20744;-33
2022/04/02 05:40:56;;;;;;;3.60;2.40;;;3.60;94.60;;;;;;5064057;28;20291;-33
2022/04/02 05:43:30;;;;;;;4.03;2.50;;;3.60;94.60;;;;;;5058612;28;20282;-34
2022/04/02 05:46:02;;;;;;;4.70;2.67;;;3.70;94.70;;;;;;5062988;28;20649;-34
2022/04/02 05:48:32;;;;;;;5.37;2.13;;;3.70;94.70;;;;;;5067731;28;20206;-33
2022/04/02 05:51:02;;;;;;;5.37;2.60;;;3.70;94.60;;;;;;5059958;28;20682;-33
2022/04/02 05:53:29;;;;;;;3.50;2.50;;;3.70;94.60;;;;;;5058575;28;20204;-33
2022/04/02 05:56:01;;;;;;;3.83;2.37;;;3.70;94.60;;;;;;5065720;28;20196;-33
2022/04/02 05:58:31;;;;;;;2.93;2.27;;;3.70;94.60;;;;;;5045941;28;20258;-33
2022/04/02 06:01:01;;;;;;;5.13;2.40;;;3.70;94.60;;;;;;5053665;28;20235;-34
2022/04/02 06:03:32;;;;;;;5.30;2.40;;;3.60;94.60;;;;;;5059651;28;20650;-33
2022/04/02 06:06:00;;;;;;;3.40;2.27;;;3.70;94.60;;;;;;5060154;28;20325;-33
2022/04/02 06:08:30;;;;;;;5.60;2.43;;;3.70;94.60;;;;;;5059888;28;20212;-33
2022/04/02 06:10:57;;;;;;;5.03;2.57;;;3.70;94.60;;;;;;5058835;28;20241;-33
2022/04/02 06:13:24;;;;;;;4.47;2.53;;;3.70;94.60;;;;;;5057085;28;20204;-33
2022/04/02 06:15:54;;;;;;;4.27;2.53;;;3.70;94.50;;;;;;5065427;28;20254;-33
2022/04/02 06:18:21;;;;;;;4.77;2.43;;;3.70;94.50;;;;;;5057583;28;20295;-33
2022/04/02 06:20:53;;;;;;;5.93;2.77;;;3.70;94.50;;;;;;5052387;28;20192;-33
2022/04/02 06:23:25;;;;;;;3.80;2.60;;;3.70;94.50;;;;;;5058013;28;20223;-34
2022/04/02 06:25:57;;;;;;;6.40;2.90;;;3.70;94.50;;;;;;5055694;28;20196;-34
2022/04/02 06:28:28;;;;;;;4.33;2.40;;;3.70;94.60;;;;;;5057492;28;20215;-33
2022/04/02 06:30:56;;;;;;;3.37;2.40;;;3.70;94.40;;;;;;5058884;28;20214;-33
2022/04/02 06:33:26;;;;;;;5.93;2.57;;;3.70;94.50;;;;;;5048328;28;20663;-33
2022/04/02 06:35:56;;;;;;;3.43;2.27;;;3.80;94.50;;;;;;5057686;28;20211;-34
2022/04/02 06:38:25;;;;;;;6.57;2.53;;;3.70;94.40;;;;;;5054288;28;20217;-33
2022/04/02 06:40:55;;;;;;;4.97;3.07;;;3.80;94.50;;;;;;5056803;28;20211;-33
2022/04/02 06:43:22;;;;;;;4.10;1.93;;;3.80;94.40;;;;;;5063231;28;20314;-33
2022/04/02 06:45:49;;;;;;;5.47;2.23;;;3.80;94.40;;;;;;5060124;28;20662;-33
2022/04/02 06:48:19;;;;;;;5.97;3.10;;;3.90;94.60;;;;;;5063260;28;20188;-34
2022/04/02 06:50:47;;;;;;;6.87;3.60;;;3.90;94.50;;;;;;5063200;28;20291;-34
2022/04/02 06:53:14;;;;;;;7.17;3.63;;;3.90;94.50;;;;;;5065249;28;20211;-33
2022/04/02 06:55:45;;;;;;;5.73;2.93;;;4.00;94.60;;;;;;5058055;28;20231;-33
2022/04/02 06:58:32;;;;;;;3.07;2.33;;;4.00;94.60;;;;;;5057203;28;20207;-33
2022/04/02 07:01:01;;;;;;;6.73;2.50;;;4.10;94.50;;;;;;5056025;28;20219;-33
2022/04/02 07:03:31;;;;;;;5.83;2.53;;;4.10;94.50;;;;;;5053064;28;20234;-34
2022/04/02 07:06:01;;;;;;;5.63;2.00;;;4.10;94.40;;;;;;5064075;28;20290;-33
2022/04/02 07:08:31;;;;;;;4.97;2.77;;;4.10;94.40;;;;;;5066381;28;20684;-33
2022/04/02 07:11:00;;;;;;;7.17;2.33;;;4.10;94.40;;;;;;5053764;28;20232;-33
2022/04/02 07:13:32;;;;;;;2.70;2.10;;;4.10;94.40;;;;;;5062125;28;20630;-33
2022/04/02 07:16:03;;;;;;;5.93;2.30;;;4.20;94.50;;;;;;5057868;28;20226;-33
2022/04/02 07:18:34;;;;;;;4.57;2.00;;;4.20;94.30;;;;;;5066669;28;20219;-34
2022/04/02 07:21:06;;;;;;;3.40;2.10;;;4.20;94.30;;;;;;5062932;28;20205;-33
2022/04/02 07:23:34;;;;;;;4.03;2.30;;;4.20;94.60;;;;;;5062397;28;20234;-33
2022/04/02 07:26:06;;;;;;;3.30;2.27;;;4.30;94.50;;;;;;5076366;28;20699;-33
2022/04/02 07:28:34;;;;;;;3.93;2.20;;;4.40;94.30;;;;;;5057641;28;20211;-33
2022/04/02 07:31:01;;;;;;;4.53;2.03;;;4.40;94.30;;;;;;5059850;28;20199;-33
2022/04/02 07:33:31;;;;;;;3.53;1.90;;;4.50;94.00;;;;;;5058481;28;20203;-33
2022/04/02 07:36:09;;;;;;;3.10;2.00;;;4.50;94.40;;;;;;5065843;28;20239;-35
2022/04/02 07:38:49;;;;;;;3.77;2.00;;;4.60;94.30;;;;;;5058806;28;20216;-34
2022/04/02 07:41:31;;;;;;;3.90;2.07;;;4.60;93.90;;;;;;5067741;28;20203;-33
2022/04/02 07:44:08;;;;;;;3.80;1.60;;;4.60;94.30;;;;;;5056810;28;20325;-34
2022/04/02 07:46:38;;;;;;;3.17;1.93;;;4.70;94.40;;;;;;5052821;28;20200;-32
2022/04/02 07:49:10;;;;;;;2.70;1.77;;;4.80;94.40;;;;;;5054276;28;20265;-33
2022/04/02 07:51:42;;;;;;;4.80;2.33;;;4.90;94.30;;;;;;5056326;28;20322;-34
2022/04/02 07:54:12;;;;;;;3.73;1.70;;;4.90;94.10;;;;;;5055737;28;20749;-33
2022/04/02 07:56:46;;;;;;;2.30;1.40;;;4.90;93.80;;;;;;5053175;28;20612;-34
2022/04/02 07:59:22;;;;;;;3.87;1.70;;;4.90;94.10;;;;;;5055000;28;20196;-33
2022/04/02 08:01:50;;;;;;;5.07;1.90;;;5.00;94.10;;;;;;5063527;28;20589;-33
2022/04/02 08:04:20;;;;;;;3.60;1.60;;;5.00;94.20;;;;;;5057108;28;20211;-33
2022/04/02 08:06:54;;;;;;;3.83;1.47;;;5.10;94.00;;;;;;5058560;28;20524;-33
2022/04/02 08:09:23;;;;;;;2.40;1.73;;;5.10;93.50;;;;;;5060222;28;20204;-33
2022/04/02 08:11:56;;;;;;;2.57;1.37;;;5.10;94.20;;;;;;5055917;28;20237;-33
2022/04/02 08:14:24;;;;;;;1.83;1.33;;;5.10;93.20;;;;;;5065588;28;20239;-34
2022/04/02 08:16:52;;;;;;;2.10;1.50;;;5.10;93.20;;;;;;5065973;28;20200;-34
2022/04/02 08:19:22;;;;;;;2.93;1.53;;;5.10;93.10;;;;;;5064933;28;20208;-34
2022/04/02 08:21:49;;;;;;;2.37;1.60;;;5.10;93.20;;;;;;5058423;28;20211;-33
2022/04/02 08:24:16;;;;;;;3.20;1.53;;;5.10;93.50;;;;;;5064728;28;20672;-33
2022/04/02 08:27:30;;;;;;;2.00;1.50;;;5.20;93.10;;;;;;5050138;28;20211;-33
2022/04/02 08:30:10;;;;;;;3.67;1.33;;;5.20;93.20;;;;;;5055995;28;20299;-34
2022/04/02 08:32:53;;;;;;;2.30;1.60;;;5.20;93.10;;;;;;5066819;28;20206;-33
2022/04/02 08:35:38;;;;;;;2.27;1.67;;;5.20;92.90;;;;;;5065968;28;20192;-34
2022/04/02 08:38:23;;;;;;;1.50;1.30;;;5.10;92.70;;;;;;5056695;28;20266;-34
2022/04/02 08:41:17;;;;;;;2.10;1.50;;;5.20;93.30;;;;;;5053831;28;20199;-33
2022/04/02 08:43:53;;;;;;;2.30;1.40;;;5.30;93.20;;;;;;5064155;28;20319;-33
2022/04/02 08:46:49;;;;;;;4.50;1.50;;;5.40;93.40;;;;;;5066339;28;20215;-34
2022/04/02 08:49:34;;;;;;;6.10;1.77;;;5.40;93.20;;;;;;5061741;28;20662;-33
2022/04/02 08:52:13;;;;;;;5.70;1.90;;;5.40;93.00;;;;;;5066735;28;20662;-34
2022/04/02 08:55:12;;;;;;;2.73;1.60;;;5.40;92.70;;;;;;5066322;28;20237;-34
2022/04/02 08:57:42;;;;;;;2.67;1.53;;;5.50;93.40;;;;;;5056031;28;20303;-33
2022/04/02 09:00:15;;;;;;;3.13;1.50;;;5.50;93.30;;;;;;5053750;28;20302;-33
2022/04/02 09:02:57;;;;;;;2.80;1.63;;;5.60;93.50;;;;;;5064220;28;20224;-33
2022/04/02 09:05:48;;;;;;;3.43;1.40;;;5.70;93.60;;;;;;5058373;28;20218;-34
2022/04/02 09:08:18;;;;;;;2.53;1.83;;;5.80;93.60;;;;;;5058135;28;20203;-33
2022/04/02 09:11:24;;;;;;;2.23;1.60;;;5.80;93.90;;;;;;5058368;28;20668;-33
2022/04/02 09:13:56;;;;;;;4.17;2.00;;;5.90;93.90;;;;;;5058720;28;20218;-33
2022/04/02 09:16:34;;;;;;;3.10;2.03;;;6.00;93.80;;;;;;5057374;28;20216;-33
2022/04/02 09:19:27;;;;;;;2.37;1.90;;;6.00;93.40;;;;;;5052598;28;20964;-34
2022/04/02 09:21:57;;;;;;;3.00;2.10;;;6.00;92.90;;;;;;5059538;28;20623;-33
2022/04/02 09:24:26;;;;;;;2.43;2.00;;;6.00;93.60;;;;;;5062144;28;20212;-33
2022/04/02 09:27:32;;;;;;;6.83;2.30;;;6.10;93.80;;;;;;5059588;28;20200;-33
2022/04/02 09:30:28;;;;;;;5.13;2.40;;;6.20;93.60;;;;;;5058186;28;20199;-33
2022/04/02 09:32:59;;;;;;;3.13;2.20;;;6.30;94.00;;;;;;5057281;28;20222;-34
2022/04/02 09:35:38;;;;;;;2.93;2.03;;;6.30;94.10;;;;;;5064697;28;20603;-34
2022/04/02 09:38:37;;;;;;;1.93;1.77;;;6.40;94.10;;;;;;5056664;28;20691;-33
2022/04/02 09:41:18;;;;;;;2.97;2.13;;;6.50;93.60;;;;;;5061086;28;20208;-33
2022/04/02 09:44:00;;;;;;;4.13;1.90;;;6.50;93.60;;;;;;5057332;28;20723;-34
2022/04/02 09:46:37;;;;;;;3.30;2.17;;;6.40;93.80;;;;;;5059105;28;20228;-33
2022/04/02 09:49:37;;;;;;;5.23;2.53;;;6.50;93.70;;;;;;5068806;28;20759;-33
2022/04/02 09:52:06;;;;;;;5.03;2.50;;;6.40;93.20;;;;;;5059196;28;20768;-33
2022/04/02 09:54:59;;;;;;;3.43;2.43;;;6.40;93.20;;;;;;5055910;28;20262;-34
2022/04/02 09:57:41;;;;;;;5.20;2.40;;;6.40;93.50;;;;;;5055907;28;20723;-33
2022/04/02 10:00:16;;;;;;;4.33;2.50;;;6.20;92.90;;;;;;5061927;28;20378;-41
2022/04/02 10:03:11;;;;;;;4.13;2.60;;;6.20;93.10;;;;;;5064349;28;20561;-41
2022/04/02 10:05:44;;;;;;;3.60;2.37;;;6.20;93.00;;;;;;5059451;28;20207;-41
2022/04/02 10:08:34;;;;;;;4.20;2.50;;;6.10;93.00;;;;;;5059199;28;20415;-41
2022/04/02 10:11:05;;;;;;;3.60;2.40;;;6.10;93.10;;;;;;5057320;28;20204;-41
2022/04/02 10:13:34;;;;;;;6.27;2.93;;;6.10;93.10;;;;;;5056741;28;20505;-41
2022/04/02 10:16:05;;;;;;;6.67;2.93;;;6.10;92.90;;;;;;5057323;28;20247;-41
2022/04/02 10:18:35;;;;;;;5.70;2.73;;;6.10;92.90;;;;;;5061621;28;20214;-41
2022/04/02 10:21:05;;;;;;;4.40;2.50;;;6.10;92.70;;;;;;5064539;28;20211;-41
2022/04/02 10:23:36;;;;;;;4.13;2.40;;;6.20;93.50;;;;;;5065689;28;20650;-41
2022/04/02 10:26:20;;;;;;;4.40;2.60;;;6.20;93.30;;;;;;5077636;28;20219;-42
2022/04/02 10:28:55;;;;;;;4.40;3.07;;;6.30;93.20;;;;;;5061583;28;20198;-42
2022/04/02 10:31:31;;;;;;;5.33;2.87;;;6.30;93.40;;;;;;5056130;28;20294;-41
2022/04/02 10:34:09;;;;;;;4.97;3.00;;;6.40;93.60;;;;;;5050294;28;20303;-41
2022/04/02 10:36:52;;;;;;;4.67;2.73;;;6.50;93.60;;;;;;5060340;28;20778;-41
2022/04/02 10:39:22;;;;;;;3.20;2.50;;;6.60;93.70;;;;;;5066703;28;20260;-42
2022/04/02 10:41:56;;;;;;;4.77;2.63;;;6.70;93.90;;;;;;5067113;28;20238;-42
2022/04/02 10:44:46;;;;;;;4.97;2.90;;;6.70;93.60;;;;;;5060678;28;20720;-42
2022/04/02 10:47:16;;;;;;;4.53;2.77;;;6.70;93.70;;;;;;5061788;28;20206;-42
2022/04/02 10:49:50;;;;;;;4.47;2.77;;;6.80;93.20;;;;;;5064750;28;20699;-41
2022/04/02 10:52:22;;;;;;;3.07;2.50;;;6.70;93.20;;;;;;5066471;28;20265;-41
2022/04/02 10:54:52;;;;;;;3.60;2.57;;;6.60;92.90;;;;;;5057376;28;20232;-41
2022/04/02 10:57:21;;;;;;;7.53;2.60;;;6.60;92.90;;;;;;5047981;28;20212;-41
2022/04/02 10:59:48;;;;;;;3.83;3.00;;;6.60;93.20;;;;;;5047783;28;20593;-41
2022/04/02 11:02:24;;;;;;;3.60;2.33;;;6.70;93.40;;;;;;5049579;28;20219;-42
2022/04/02 11:05:04;;;;;;;4.67;2.83;;;6.60;92.90;;;;;;5046975;28;20261;-41
2022/04/02 11:07:40;;;;;;;4.67;2.60;;;6.60;93.20;;;;;;5046775;28;20258;-42
2022/04/02 11:10:11;;;;;;;6.27;3.13;;;6.70;93.50;;;;;;5067606;28;20556;-42
2022/04/02 11:12:41;;;;;;;4.50;2.57;;;6.70;93.50;;;;;;5055681;28;20212;-41
2022/04/02 11:15:25;;;;;;;3.17;2.80;;;6.70;92.60;;;;;;5048704;28;20254;-41
2022/04/02 11:17:57;;;;;;;4.80;2.90;;;6.70;93.20;;;;;;5063603;28;20877;-41
2022/04/02 11:20:26;;;;;;;4.47;2.57;;;6.60;92.90;;;;;;5054989;28;20619;-41
2022/04/02 11:22:54;;;;;;;4.83;2.93;;;6.70;93.30;;;;;;5054574;28;20591;-41
2022/04/02 11:25:35;;;;;;;4.00;2.70;;;6.80;93.10;;;;;;5054297;28;20214;-42
2022/04/02 11:28:05;;;;;;;4.10;2.70;;;6.80;93.20;;;;;;5053006;28;20573;-33
2022/04/02 11:30:36;;;;;;;4.60;3.00;;;6.90;93.20;;;;;;5052471;28;20203;-34
2022/04/02 11:33:12;;;;;;;4.70;3.07;;;6.90;93.10;;;;;;5052155;28;20214;-33
2022/04/02 11:36:14;;;;;;;4.47;2.60;;;6.90;93.20;;;;;;5052044;28;20222;-33
2022/04/02 11:38:58;;;;;;;3.63;2.57;;;6.90;93.40;;;;;;5056515;28;20738;-35
2022/04/02 11:41:34;;;;;;;5.20;2.80;;;6.90;93.40;;;;;;5067189;28;20199;-33
2022/04/02 11:44:09;;;;;;;3.90;3.00;;;6.90;93.10;;;;;;5061490;28;20603;-34
2022/04/02 11:47:04;;;;;;;7.13;3.00;;;6.90;93.60;;;;;;5058011;28;20192;-33
2022/04/02 11:49:39;;;;;;;8.73;3.70;;;6.90;93.40;;;;;;5053540;28;20224;-34
2022/04/02 11:52:10;;;;;;;4.20;3.13;;;6.90;93.60;;;;;;5065319;28;20270;-33
2022/04/02 11:54:50;;;;;;;8.50;3.43;;;7.00;93.50;;;;;;5052708;28;20249;-33
2022/04/02 11:57:19;;;;;;;4.40;2.70;;;7.00;93.00;;;;;;5063303;28;21006;-34
2022/04/02 11:59:53;;;;;;;3.87;3.13;;;7.00;93.50;;;;;;5063274;28;20805;-34
2022/04/02 12:02:53;;;;;;;7.87;3.03;;;7.10;93.40;;;;;;5058295;28;20277;-33
2022/04/02 12:05:21;;;;;;;4.13;3.30;;;7.10;92.90;;;;;;5053611;28;20243;-33
2022/04/02 12:07:50;;;;;;;7.87;3.20;;;7.20;93.50;;;;;;5062877;28;20666;-33
2022/04/02 12:10:47;;;;;;;4.13;2.87;;;7.20;93.60;;;;;;5061036;28;20207;-33
2022/04/02 12:13:16;;;;;;;3.30;2.80;;;7.30;93.20;;;;;;5053876;28;20199;-34
2022/04/02 12:16:14;;;;;;;4.23;3.53;;;7.30;93.10;;;;;;5049374;28;20208;-33
2022/04/02 12:18:58;;;;;;;4.37;2.97;;;7.30;93.00;;;;;;5062416;28;20272;-34
2022/04/02 12:21:42;;;;;;;3.50;2.83;;;7.40;93.60;;;;;;5055120;28;20384;-33
2022/04/02 12:24:11;;;;;;;4.43;2.90;;;7.40;93.30;;;;;;5061708;28;20328;-34
2022/04/02 12:26:46;;;;;;;5.00;3.00;;;7.50;93.50;;;;;;5057492;28;20231;-33
2022/04/02 12:29:19;;;;;;;3.87;2.93;;;7.50;93.60;;;;;;5049616;28;20195;-33
2022/04/02 12:31:52;;;;;;;5.30;3.00;;;7.50;93.60;;;;;;5058879;28;20269;-34
2022/04/02 12:34:23;;;;;;;3.60;2.67;;;7.60;93.80;;;;;;5055390;28;20219;-33
2022/04/02 12:37:03;;;;;;;4.83;2.80;;;7.70;94.10;;;;;;5063500;28;20210;-34
2022/04/02 12:39:31;;;;;;;3.60;2.77;;;7.80;94.00;;;;;;5053016;28;20690;-34
2022/04/02 12:41:58;;;;;;;4.67;2.70;;;7.80;93.00;;;;;;5058968;28;20306;-33
2022/04/02 12:44:27;;;;;;;4.47;2.63;;;7.80;93.70;;;;;;5058988;28;20258;-33
2022/04/02 12:47:09;;;;;;;5.47;3.10;;;7.90;93.10;;;;;;5054758;28;20232;-34
2022/04/02 12:49:38;;;;;;;7.33;3.50;;;7.90;93.00;;;;;;5056838;28;20505;-33
2022/04/02 12:52:20;;;;;;;5.10;2.90;;;7.80;92.90;;;;;;5067144;28;20230;-33
2022/04/02 12:54:55;;;;;;;5.13;2.97;;;7.80;93.20;;;;;;5060490;28;20243;-33
2022/04/02 12:57:31;;;;;;;3.17;2.60;;;7.70;92.90;;;;;;5065445;28;20207;-33
2022/04/02 13:00:03;;;;;;;3.47;2.83;;;7.60;92.10;;;;;;5069416;28;20188;-33
2022/04/02 13:02:40;;;;;;;6.37;2.73;;;7.60;91.90;;;;;;5055940;28;20670;-33
2022/04/02 13:05:14;;;;;;;3.93;2.80;;;7.60;92.20;;;;;;5064104;28;20271;-34
2022/04/02 13:07:58;;;;;;;4.30;2.73;;;7.60;92.60;;;;;;5066476;28;20196;-33
2022/04/02 13:10:28;;;;;;;3.03;2.73;;;7.60;92.20;;;;;;5070593;28;20302;-34
2022/04/02 13:13:05;;;;;;;3.77;2.90;;;7.60;92.70;;;;;;5065947;28;20199;-34
2022/04/02 13:15:36;;;;;;;5.33;3.17;;;7.70;92.90;;;;;;5063540;28;20210;-34
2022/04/02 13:21:00;;;;;;;4.30;3.00;;;7.80;93.20;;;;;;5050627;28;20230;-33
2022/04/02 13:24:00;;;;;;;3.53;2.90;;;7.80;93.50;;;;;;5058901;28;20885;-34
2022/04/02 13:26:31;;;;;;;3.33;2.70;;;7.90;93.80;;;;;;5050822;28;20196;-34
2022/04/02 13:29:28;;;;;;;5.03;3.00;;;8.10;94.00;;;;;;5060453;28;20207;-34
2022/04/02 13:32:32;;;;;;;6.10;3.50;;;8.10;93.70;;;;;;5061762;28;20195;-34
2022/04/02 13:35:25;;;;;;;5.97;3.40;;;8.20;94.00;;;;;;5038132;28;20203;-32
2022/04/02 13:38:18;;;;;;;4.60;3.00;;;8.30;94.10;;;;;;5058570;28;20416;-32